sensor_id;sensor_type;location;lat;lon;timestamp;temperature;humidity
40828;DHT22;26549;50.918;5.338;2023-12-20T00:02:24;9.40;99.90
40828;DHT22;26549;50.918;5.338;2023-12-20T00:04:52;9.40;99.90
40828;DHT22;26549;50.918;5.338;2023-12-20T00:07:21;9.50;99.90
40828;DHT22;26549;50.918;5.338;2023-12-20T00:09:48;9.30;99.90
40828;DHT22;26549;50.918;5.338;2023-12-20T00:12:17;9.20;99.90
40828;DHT22;26549;50.918;5.338;2023-12-20T00:14:43;9.30;99.90
40828;DHT22;26549;50.918;5.338;2023-12-20T00:17:08;9.30;99.90
40828;DHT22;26549;50.918;5.338;2023-12-20T00:19:35;9.40;99.90
40828;DHT22;26549;50.918;5.338;2023-12-20T00:22:07;9.40;99.90
40828;DHT22;26549;50.918;5.338;2023-12-20T00:24:36;9.30;99.90
40828;DHT22;26549;50.918;5.338;2023-12-20T00:27:03;9.20;99.90
40828;DHT22;26549;50.918;5.338;2023-12-20T00:29:28;9.20;99.90
40828;DHT22;26549;50.918;5.338;2023-12-20T00:31:57;9.40;99.90
40828;DHT22;26549;50.918;5.338;2023-12-20T00:34:26;9.40;99.90
40828;DHT22;26549;50.918;5.338;2023-12-20T00:36:55;9.30;99.90
40828;DHT22;26549;50.918;5.338;2023-12-20T00:39:23;9.00;99.90
40828;DHT22;26549;50.918;5.338;2023-12-20T00:41:50;9.00;99.90
40828;DHT22;26549;50.918;5.338;2023-12-20T00:44:16;8.90;99.90
40828;DHT22;26549;50.918;5.338;2023-12-20T00:46:42;8.70;99.90
40828;DHT22;26549;50.918;5.338;2023-12-20T00:49:14;8.60;99.90
40828;DHT22;26549;50.918;5.338;2023-12-20T00:51:39;8.60;99.90
40828;DHT22;26549;50.918;5.338;2023-12-20T00:54:07;8.60;99.90
40828;DHT22;26549;50.918;5.338;2023-12-20T00:56:36;8.50;99.90
40828;DHT22;26549;50.918;5.338;2023-12-20T00:59:03;8.40;99.90
40828;DHT22;26549;50.918;5.338;2023-12-20T01:01:28;8.50;99.90
40828;DHT22;26549;50.918;5.338;2023-12-20T01:03:55;8.40;99.90
40828;DHT22;26549;50.918;5.338;2023-12-20T01:06:24;8.30;99.90
40828;DHT22;26549;50.918;5.338;2023-12-20T01:08:53;8.40;99.90
40828;DHT22;26549;50.918;5.338;2023-12-20T01:11:18;8.40;99.90
40828;DHT22;26549;50.918;5.338;2023-12-20T01:13:47;8.50;99.90
40828;DHT22;26549;50.918;5.338;2023-12-20T01:16:14;8.40;99.90
40828;DHT22;26549;50.918;5.338;2023-12-20T01:18:43;8.50;99.90
40828;DHT22;26549;50.918;5.338;2023-12-20T01:21:10;8.40;99.90
40828;DHT22;26549;50.918;5.338;2023-12-20T01:23:38;8.40;99.90
40828;DHT22;26549;50.918;5.338;2023-12-20T01:26:06;8.40;99.90
40828;DHT22;26549;50.918;5.338;2023-12-20T01:28:32;8.40;99.90
40828;DHT22;26549;50.918;5.338;2023-12-20T01:30:59;8.40;99.90
40828;DHT22;26549;50.918;5.338;2023-12-20T01:33:27;8.40;99.90
40828;DHT22;26549;50.918;5.338;2023-12-20T01:35:54;8.50;99.90
40828;DHT22;26549;50.918;5.338;2023-12-20T01:38:23;8.50;99.90
40828;DHT22;26549;50.918;5.338;2023-12-20T01:40:50;8.40;99.90
40828;DHT22;26549;50.918;5.338;2023-12-20T01:43:22;8.40;99.90
40828;DHT22;26549;50.918;5.338;2023-12-20T01:45:50;8.30;99.90
40828;DHT22;26549;50.918;5.338;2023-12-20T01:48:19;8.30;99.90
40828;DHT22;26549;50.918;5.338;2023-12-20T01:50:49;8.20;99.90
40828;DHT22;26549;50.918;5.338;2023-12-20T01:53:21;8.20;99.90
40828;DHT22;26549;50.918;5.338;2023-12-20T01:55:51;8.10;99.90
40828;DHT22;26549;50.918;5.338;2023-12-20T01:58:20;8.00;99.90
40828;DHT22;26549;50.918;5.338;2023-12-20T02:00:49;8.00;99.90
40828;DHT22;26549;50.918;5.338;2023-12-20T02:03:18;7.90;99.90
40828;DHT22;26549;50.918;5.338;2023-12-20T02:05:45;7.90;99.90
40828;DHT22;26549;50.918;5.338;2023-12-20T02:08:15;8.00;99.90
40828;DHT22;26549;50.918;5.338;2023-12-20T02:10:42;8.00;99.90
40828;DHT22;26549;50.918;5.338;2023-12-20T02:13:11;8.00;99.90
40828;DHT22;26549;50.918;5.338;2023-12-20T02:15:37;7.90;99.90
40828;DHT22;26549;50.918;5.338;2023-12-20T02:18:03;7.80;99.90
40828;DHT22;26549;50.918;5.338;2023-12-20T02:20:31;7.70;99.90
40828;DHT22;26549;50.918;5.338;2023-12-20T02:22:57;7.90;99.90
40828;DHT22;26549;50.918;5.338;2023-12-20T02:25:28;7.80;99.90
40828;DHT22;26549;50.918;5.338;2023-12-20T02:27:55;7.80;99.90
40828;DHT22;26549;50.918;5.338;2023-12-20T02:30:21;7.80;99.90
40828;DHT22;26549;50.918;5.338;2023-12-20T02:32:50;7.80;99.90
40828;DHT22;26549;50.918;5.338;2023-12-20T02:35:17;7.70;99.90
40828;DHT22;26549;50.918;5.338;2023-12-20T02:37:44;7.80;99.90
40828;DHT22;26549;50.918;5.338;2023-12-20T02:40:13;7.70;99.90
40828;DHT22;26549;50.918;5.338;2023-12-20T02:42:40;7.70;99.90
40828;DHT22;26549;50.918;5.338;2023-12-20T02:45:06;7.70;99.90
40828;DHT22;26549;50.918;5.338;2023-12-20T02:47:33;7.70;99.90
40828;DHT22;26549;50.918;5.338;2023-12-20T02:50:02;7.60;99.90
40828;DHT22;26549;50.918;5.338;2023-12-20T02:52:28;7.50;99.90
40828;DHT22;26549;50.918;5.338;2023-12-20T02:54:55;7.50;99.90
40828;DHT22;26549;50.918;5.338;2023-12-20T02:57:21;7.50;99.90
40828;DHT22;26549;50.918;5.338;2023-12-20T02:59:49;7.50;99.90
40828;DHT22;26549;50.918;5.338;2023-12-20T03:02:16;7.60;99.90
40828;DHT22;26549;50.918;5.338;2023-12-20T03:04:45;7.50;99.90
40828;DHT22;26549;50.918;5.338;2023-12-20T03:07:14;7.60;99.90
40828;DHT22;26549;50.918;5.338;2023-12-20T03:09:40;7.50;99.90
40828;DHT22;26549;50.918;5.338;2023-12-20T03:12:11;7.50;99.90
40828;DHT22;26549;50.918;5.338;2023-12-20T03:14:38;7.60;99.90
40828;DHT22;26549;50.918;5.338;2023-12-20T03:17:07;7.60;99.90
40828;DHT22;26549;50.918;5.338;2023-12-20T03:19:35;7.60;99.90
40828;DHT22;26549;50.918;5.338;2023-12-20T03:22:00;7.70;99.90
40828;DHT22;26549;50.918;5.338;2023-12-20T03:24:29;7.70;99.90
40828;DHT22;26549;50.918;5.338;2023-12-20T03:26:56;7.70;99.90
40828;DHT22;26549;50.918;5.338;2023-12-20T03:29:23;7.60;99.90
40828;DHT22;26549;50.918;5.338;2023-12-20T03:31:52;7.60;99.90
40828;DHT22;26549;50.918;5.338;2023-12-20T03:34:21;7.70;99.90
40828;DHT22;26549;50.918;5.338;2023-12-20T03:36:49;7.70;99.90
40828;DHT22;26549;50.918;5.338;2023-12-20T03:39:17;7.70;99.90
40828;DHT22;26549;50.918;5.338;2023-12-20T03:41:46;7.80;99.90
40828;DHT22;26549;50.918;5.338;2023-12-20T03:44:15;7.80;99.90
40828;DHT22;26549;50.918;5.338;2023-12-20T03:46:41;7.70;99.90
40828;DHT22;26549;50.918;5.338;2023-12-20T03:49:09;7.70;99.90
40828;DHT22;26549;50.918;5.338;2023-12-20T03:51:35;7.50;99.90
40828;DHT22;26549;50.918;5.338;2023-12-20T03:54:04;7.60;99.90
40828;DHT22;26549;50.918;5.338;2023-12-20T03:56:31;7.80;99.90
40828;DHT22;26549;50.918;5.338;2023-12-20T03:59:00;7.70;99.90
40828;DHT22;26549;50.918;5.338;2023-12-20T04:01:27;7.70;99.90
40828;DHT22;26549;50.918;5.338;2023-12-20T04:03:56;7.60;99.90
40828;DHT22;26549;50.918;5.338;2023-12-20T04:06:25;7.60;99.90
40828;DHT22;26549;50.918;5.338;2023-12-20T04:08:54;7.60;99.90
40828;DHT22;26549;50.918;5.338;2023-12-20T04:11:19;7.70;99.90
40828;DHT22;26549;50.918;5.338;2023-12-20T04:13:48;7.60;99.90
40828;DHT22;26549;50.918;5.338;2023-12-20T04:16:16;7.80;99.90
40828;DHT22;26549;50.918;5.338;2023-12-20T04:18:41;8.00;99.90
40828;DHT22;26549;50.918;5.338;2023-12-20T04:21:13;7.90;99.90
40828;DHT22;26549;50.918;5.338;2023-12-20T04:23:42;7.80;99.90
40828;DHT22;26549;50.918;5.338;2023-12-20T04:26:20;7.80;99.90
40828;DHT22;26549;50.918;5.338;2023-12-20T04:28:47;7.80;99.90
40828;DHT22;26549;50.918;5.338;2023-12-20T04:31:13;7.80;99.90
40828;DHT22;26549;50.918;5.338;2023-12-20T04:33:42;7.80;99.90
40828;DHT22;26549;50.918;5.338;2023-12-20T04:36:11;7.70;99.90
40828;DHT22;26549;50.918;5.338;2023-12-20T04:38:40;7.80;99.90
40828;DHT22;26549;50.918;5.338;2023-12-20T04:41:09;7.90;99.90
40828;DHT22;26549;50.918;5.338;2023-12-20T04:43:38;7.90;99.90
40828;DHT22;26549;50.918;5.338;2023-12-20T04:46:04;7.90;99.90
40828;DHT22;26549;50.918;5.338;2023-12-20T04:48:33;7.90;99.90
40828;DHT22;26549;50.918;5.338;2023-12-20T04:51:00;7.90;99.90
40828;DHT22;26549;50.918;5.338;2023-12-20T04:53:27;7.90;99.90
40828;DHT22;26549;50.918;5.338;2023-12-20T04:55:54;8.00;99.90
40828;DHT22;26549;50.918;5.338;2023-12-20T04:58:32;8.00;99.90
40828;DHT22;26549;50.918;5.338;2023-12-20T05:01:01;7.90;99.90
40828;DHT22;26549;50.918;5.338;2023-12-20T05:03:30;8.00;99.90
40828;DHT22;26549;50.918;5.338;2023-12-20T05:05:58;8.00;99.90
40828;DHT22;26549;50.918;5.338;2023-12-20T05:08:26;8.00;99.90
40828;DHT22;26549;50.918;5.338;2023-12-20T05:10:55;8.00;99.90
40828;DHT22;26549;50.918;5.338;2023-12-20T05:13:24;7.90;99.90
40828;DHT22;26549;50.918;5.338;2023-12-20T05:15:53;7.90;99.90
40828;DHT22;26549;50.918;5.338;2023-12-20T05:18:20;7.90;99.90
40828;DHT22;26549;50.918;5.338;2023-12-20T05:20:51;7.80;99.90
40828;DHT22;26549;50.918;5.338;2023-12-20T05:23:19;7.80;99.90
40828;DHT22;26549;50.918;5.338;2023-12-20T05:25:47;7.80;99.90
40828;DHT22;26549;50.918;5.338;2023-12-20T05:28:12;7.80;99.90
40828;DHT22;26549;50.918;5.338;2023-12-20T05:30:44;7.70;99.90
40828;DHT22;26549;50.918;5.338;2023-12-20T05:33:10;7.80;99.90
40828;DHT22;26549;50.918;5.338;2023-12-20T05:35:38;7.80;99.90
40828;DHT22;26549;50.918;5.338;2023-12-20T05:38:04;7.90;99.90
40828;DHT22;26549;50.918;5.338;2023-12-20T05:40:34;7.90;99.90
40828;DHT22;26549;50.918;5.338;2023-12-20T05:42:59;7.80;99.90
40828;DHT22;26549;50.918;5.338;2023-12-20T05:45:27;7.70;99.90
40828;DHT22;26549;50.918;5.338;2023-12-20T05:47:56;7.60;99.90
40828;DHT22;26549;50.918;5.338;2023-12-20T05:50:25;7.70;99.90
40828;DHT22;26549;50.918;5.338;2023-12-20T05:52:52;7.60;99.90
40828;DHT22;26549;50.918;5.338;2023-12-20T05:55:17;7.40;99.90
40828;DHT22;26549;50.918;5.338;2023-12-20T05:57:46;7.50;99.90
40828;DHT22;26549;50.918;5.338;2023-12-20T06:00:15;7.50;99.90
40828;DHT22;26549;50.918;5.338;2023-12-20T06:02:41;7.60;99.90
40828;DHT22;26549;50.918;5.338;2023-12-20T06:05:07;7.40;99.90
40828;DHT22;26549;50.918;5.338;2023-12-20T06:07:34;7.50;99.90
40828;DHT22;26549;50.918;5.338;2023-12-20T06:09:59;7.50;99.90
40828;DHT22;26549;50.918;5.338;2023-12-20T06:12:25;7.50;99.90
40828;DHT22;26549;50.918;5.338;2023-12-20T06:14:55;7.50;99.90
40828;DHT22;26549;50.918;5.338;2023-12-20T06:17:21;7.30;99.90
40828;DHT22;26549;50.918;5.338;2023-12-20T06:19:47;7.20;99.90
40828;DHT22;26549;50.918;5.338;2023-12-20T06:22:16;7.30;99.90
40828;DHT22;26549;50.918;5.338;2023-12-20T06:24:45;7.30;99.90
40828;DHT22;26549;50.918;5.338;2023-12-20T06:27:12;7.30;99.90
40828;DHT22;26549;50.918;5.338;2023-12-20T06:29:39;7.30;99.90
40828;DHT22;26549;50.918;5.338;2023-12-20T06:32:08;7.40;99.90
40828;DHT22;26549;50.918;5.338;2023-12-20T06:34:36;7.30;99.90
40828;DHT22;26549;50.918;5.338;2023-12-20T06:37:05;7.50;99.90
40828;DHT22;26549;50.918;5.338;2023-12-20T06:39:34;7.40;99.90
40828;DHT22;26549;50.918;5.338;2023-12-20T06:42:02;7.60;99.90
40828;DHT22;26549;50.918;5.338;2023-12-20T06:44:28;7.60;99.90
40828;DHT22;26549;50.918;5.338;2023-12-20T06:46:54;7.60;99.90
40828;DHT22;26549;50.918;5.338;2023-12-20T06:49:23;7.50;99.90
40828;DHT22;26549;50.918;5.338;2023-12-20T06:51:49;7.50;99.90
40828;DHT22;26549;50.918;5.338;2023-12-20T06:54:15;7.60;99.90
40828;DHT22;26549;50.918;5.338;2023-12-20T06:56:43;7.50;99.90
40828;DHT22;26549;50.918;5.338;2023-12-20T06:59:10;7.60;99.90
40828;DHT22;26549;50.918;5.338;2023-12-20T07:01:35;7.80;99.90
40828;DHT22;26549;50.918;5.338;2023-12-20T07:04:01;7.70;99.90
40828;DHT22;26549;50.918;5.338;2023-12-20T07:06:29;7.60;99.90
40828;DHT22;26549;50.918;5.338;2023-12-20T07:08:55;7.50;99.90
40828;DHT22;26549;50.918;5.338;2023-12-20T07:11:21;7.50;99.90
40828;DHT22;26549;50.918;5.338;2023-12-20T07:13:46;7.50;99.90
40828;DHT22;26549;50.918;5.338;2023-12-20T07:16:12;7.40;99.90
40828;DHT22;26549;50.918;5.338;2023-12-20T07:18:38;7.60;99.90
40828;DHT22;26549;50.918;5.338;2023-12-20T07:21:04;7.50;99.90
40828;DHT22;26549;50.918;5.338;2023-12-20T07:23:30;7.60;99.90
40828;DHT22;26549;50.918;5.338;2023-12-20T07:26:01;7.60;99.90
40828;DHT22;26549;50.918;5.338;2023-12-20T07:28:26;7.60;99.90
40828;DHT22;26549;50.918;5.338;2023-12-20T07:30:52;7.50;99.90
40828;DHT22;26549;50.918;5.338;2023-12-20T07:33:18;7.40;99.90
40828;DHT22;26549;50.918;5.338;2023-12-20T07:35:44;7.30;99.90
40828;DHT22;26549;50.918;5.338;2023-12-20T07:38:10;7.30;99.90
40828;DHT22;26549;50.918;5.338;2023-12-20T07:40:37;7.20;99.90
40828;DHT22;26549;50.918;5.338;2023-12-20T07:43:04;7.40;99.90
40828;DHT22;26549;50.918;5.338;2023-12-20T07:45:30;7.40;99.90
40828;DHT22;26549;50.918;5.338;2023-12-20T07:47:55;7.50;99.90
40828;DHT22;26549;50.918;5.338;2023-12-20T07:50:21;7.50;99.90
40828;DHT22;26549;50.918;5.338;2023-12-20T07:52:47;7.40;99.90
40828;DHT22;26549;50.918;5.338;2023-12-20T07:55:12;7.40;99.90
40828;DHT22;26549;50.918;5.338;2023-12-20T07:57:38;7.40;99.90
40828;DHT22;26549;50.918;5.338;2023-12-20T08:00:05;7.40;99.90
40828;DHT22;26549;50.918;5.338;2023-12-20T08:02:31;7.40;99.90
40828;DHT22;26549;50.918;5.338;2023-12-20T08:04:56;7.40;99.90
40828;DHT22;26549;50.918;5.338;2023-12-20T08:07:22;7.50;99.90
40828;DHT22;26549;50.918;5.338;2023-12-20T08:09:48;7.30;99.90
40828;DHT22;26549;50.918;5.338;2023-12-20T08:12:14;7.40;99.90
40828;DHT22;26549;50.918;5.338;2023-12-20T08:14:41;7.40;99.90
40828;DHT22;26549;50.918;5.338;2023-12-20T08:17:06;7.50;99.90
40828;DHT22;26549;50.918;5.338;2023-12-20T08:19:32;7.40;99.90
40828;DHT22;26549;50.918;5.338;2023-12-20T08:21:58;7.30;99.90
40828;DHT22;26549;50.918;5.338;2023-12-20T08:24:24;7.40;99.90
40828;DHT22;26549;50.918;5.338;2023-12-20T08:26:51;7.50;99.90
40828;DHT22;26549;50.918;5.338;2023-12-20T08:29:16;7.50;99.90
40828;DHT22;26549;50.918;5.338;2023-12-20T08:31:42;7.40;99.90
40828;DHT22;26549;50.918;5.338;2023-12-20T08:34:08;7.50;99.90
40828;DHT22;26549;50.918;5.338;2023-12-20T08:36:34;7.50;99.90
40828;DHT22;26549;50.918;5.338;2023-12-20T08:38:59;7.50;99.90
40828;DHT22;26549;50.918;5.338;2023-12-20T08:41:26;7.60;99.90
40828;DHT22;26549;50.918;5.338;2023-12-20T08:43:53;7.60;99.90
40828;DHT22;26549;50.918;5.338;2023-12-20T08:46:18;7.60;99.90
40828;DHT22;26549;50.918;5.338;2023-12-20T08:48:44;7.60;99.90
40828;DHT22;26549;50.918;5.338;2023-12-20T08:51:10;7.60;99.90
40828;DHT22;26549;50.918;5.338;2023-12-20T08:53:37;7.60;99.90
40828;DHT22;26549;50.918;5.338;2023-12-20T08:56:03;7.60;99.90
40828;DHT22;26549;50.918;5.338;2023-12-20T08:58:29;7.70;99.90
40828;DHT22;26549;50.918;5.338;2023-12-20T09:00:54;7.70;99.90
40828;DHT22;26549;50.918;5.338;2023-12-20T09:03:21;7.70;99.90
40828;DHT22;26549;50.918;5.338;2023-12-20T09:05:47;7.70;99.90
40828;DHT22;26549;50.918;5.338;2023-12-20T09:08:14;7.80;99.90
40828;DHT22;26549;50.918;5.338;2023-12-20T09:10:40;7.90;99.90
40828;DHT22;26549;50.918;5.338;2023-12-20T09:13:06;7.90;99.90
40828;DHT22;26549;50.918;5.338;2023-12-20T09:15:32;7.90;99.90
40828;DHT22;26549;50.918;5.338;2023-12-20T09:17:59;7.70;99.90
40828;DHT22;26549;50.918;5.338;2023-12-20T09:20:25;7.80;99.90
40828;DHT22;26549;50.918;5.338;2023-12-20T09:22:51;7.80;99.90
40828;DHT22;26549;50.918;5.338;2023-12-20T09:25:16;7.90;99.90
40828;DHT22;26549;50.918;5.338;2023-12-20T09:27:43;7.90;99.90
40828;DHT22;26549;50.918;5.338;2023-12-20T09:30:13;7.90;99.90
40828;DHT22;26549;50.918;5.338;2023-12-20T09:32:39;7.80;99.90
40828;DHT22;26549;50.918;5.338;2023-12-20T09:35:05;7.90;99.90
40828;DHT22;26549;50.918;5.338;2023-12-20T09:37:32;7.90;99.90
40828;DHT22;26549;50.918;5.338;2023-12-20T09:39:58;7.90;99.90
40828;DHT22;26549;50.918;5.338;2023-12-20T09:42:41;8.00;99.90
40828;DHT22;26549;50.918;5.338;2023-12-20T09:45:09;8.00;99.90
40828;DHT22;26549;50.918;5.338;2023-12-20T09:47:35;7.90;99.90
40828;DHT22;26549;50.918;5.338;2023-12-20T09:50:02;8.10;99.90
40828;DHT22;26549;50.918;5.338;2023-12-20T09:52:29;8.10;99.90
40828;DHT22;26549;50.918;5.338;2023-12-20T09:54:55;8.20;99.90
40828;DHT22;26549;50.918;5.338;2023-12-20T09:57:22;8.20;99.90
40828;DHT22;26549;50.918;5.338;2023-12-20T09:59:48;8.30;99.90
40828;DHT22;26549;50.918;5.338;2023-12-20T10:02:14;8.40;99.90
40828;DHT22;26549;50.918;5.338;2023-12-20T10:04:48;8.40;99.90
40828;DHT22;26549;50.918;5.338;2023-12-20T10:07:15;8.40;99.90
40828;DHT22;26549;50.918;5.338;2023-12-20T10:09:41;8.40;99.90
40828;DHT22;26549;50.918;5.338;2023-12-20T10:12:07;8.40;99.90
40828;DHT22;26549;50.918;5.338;2023-12-20T10:14:34;8.50;99.90
40828;DHT22;26549;50.918;5.338;2023-12-20T10:17:03;8.50;99.90
40828;DHT22;26549;50.918;5.338;2023-12-20T10:19:30;8.50;99.90
40828;DHT22;26549;50.918;5.338;2023-12-20T10:21:56;8.60;99.90
40828;DHT22;26549;50.918;5.338;2023-12-20T10:24:23;8.80;99.90
40828;DHT22;26549;50.918;5.338;2023-12-20T10:27:04;8.70;99.90
40828;DHT22;26549;50.918;5.338;2023-12-20T10:29:37;8.70;99.90
40828;DHT22;26549;50.918;5.338;2023-12-20T10:32:26;8.60;99.90
40828;DHT22;26549;50.918;5.338;2023-12-20T10:34:54;8.50;99.90
40828;DHT22;26549;50.918;5.338;2023-12-20T10:37:20;8.50;99.90
40828;DHT22;26549;50.918;5.338;2023-12-20T10:39:51;8.50;99.90
40828;DHT22;26549;50.918;5.338;2023-12-20T10:42:20;8.50;99.90
40828;DHT22;26549;50.918;5.338;2023-12-20T10:44:47;8.40;99.90
40828;DHT22;26549;50.918;5.338;2023-12-20T10:47:13;8.70;99.90
40828;DHT22;26549;50.918;5.338;2023-12-20T10:49:39;8.70;99.90
40828;DHT22;26549;50.918;5.338;2023-12-20T10:52:06;8.70;99.90
40828;DHT22;26549;50.918;5.338;2023-12-20T10:54:32;8.70;99.90
40828;DHT22;26549;50.918;5.338;2023-12-20T10:56:58;8.60;99.90
40828;DHT22;26549;50.918;5.338;2023-12-20T10:59:28;8.70;99.90
40828;DHT22;26549;50.918;5.338;2023-12-20T11:01:58;8.70;99.90
40828;DHT22;26549;50.918;5.338;2023-12-20T11:04:37;8.70;99.90
40828;DHT22;26549;50.918;5.338;2023-12-20T11:12:41;9.00;99.90
40828;DHT22;26549;50.918;5.338;2023-12-20T11:15:10;8.70;99.90
40828;DHT22;26549;50.918;5.338;2023-12-20T11:17:39;8.80;99.90
40828;DHT22;26549;50.918;5.338;2023-12-20T11:20:07;8.90;99.90
40828;DHT22;26549;50.918;5.338;2023-12-20T11:22:34;8.90;99.90
40828;DHT22;26549;50.918;5.338;2023-12-20T11:25:08;9.00;99.90
40828;DHT22;26549;50.918;5.338;2023-12-20T11:27:35;9.10;99.90
40828;DHT22;26549;50.918;5.338;2023-12-20T11:30:03;9.10;99.90
40828;DHT22;26549;50.918;5.338;2023-12-20T11:32:34;9.10;99.90
40828;DHT22;26549;50.918;5.338;2023-12-20T11:35:17;9.00;99.90
40828;DHT22;26549;50.918;5.338;2023-12-20T11:37:43;9.10;99.90
40828;DHT22;26549;50.918;5.338;2023-12-20T11:40:15;9.20;99.90
40828;DHT22;26549;50.918;5.338;2023-12-20T11:42:42;9.20;99.90
40828;DHT22;26549;50.918;5.338;2023-12-20T11:45:09;9.10;99.90
40828;DHT22;26549;50.918;5.338;2023-12-20T11:47:35;9.00;99.90
40828;DHT22;26549;50.918;5.338;2023-12-20T11:50:01;9.00;99.90
40828;DHT22;26549;50.918;5.338;2023-12-20T11:52:29;9.00;99.90
40828;DHT22;26549;50.918;5.338;2023-12-20T11:54:56;9.00;99.90
40828;DHT22;26549;50.918;5.338;2023-12-20T11:57:22;9.20;99.90
40828;DHT22;26549;50.918;5.338;2023-12-20T11:59:48;9.30;99.90
40828;DHT22;26549;50.918;5.338;2023-12-20T12:02:14;9.30;99.90
40828;DHT22;26549;50.918;5.338;2023-12-20T12:04:43;9.10;99.90
40828;DHT22;26549;50.918;5.338;2023-12-20T12:07:09;9.00;99.90
40828;DHT22;26549;50.918;5.338;2023-12-20T12:09:35;9.10;99.90
40828;DHT22;26549;50.918;5.338;2023-12-20T12:12:01;9.10;99.90
40828;DHT22;26549;50.918;5.338;2023-12-20T12:14:27;9.00;99.90
40828;DHT22;26549;50.918;5.338;2023-12-20T12:16:53;8.90;99.90
40828;DHT22;26549;50.918;5.338;2023-12-20T12:19:23;8.90;99.90
40828;DHT22;26549;50.918;5.338;2023-12-20T12:22:05;9.00;99.90
40828;DHT22;26549;50.918;5.338;2023-12-20T12:24:37;9.00;99.90
40828;DHT22;26549;50.918;5.338;2023-12-20T12:27:03;9.00;99.90
40828;DHT22;26549;50.918;5.338;2023-12-20T12:29:31;9.00;99.90
40828;DHT22;26549;50.918;5.338;2023-12-20T12:31:56;9.00;99.90
40828;DHT22;26549;50.918;5.338;2023-12-20T12:34:23;9.00;99.90
40828;DHT22;26549;50.918;5.338;2023-12-20T12:36:49;9.00;99.90
40828;DHT22;26549;50.918;5.338;2023-12-20T12:39:17;9.10;99.90
40828;DHT22;26549;50.918;5.338;2023-12-20T12:41:43;9.20;99.90
40828;DHT22;26549;50.918;5.338;2023-12-20T12:44:09;9.10;99.90
40828;DHT22;26549;50.918;5.338;2023-12-20T12:46:35;9.00;99.90
40828;DHT22;26549;50.918;5.338;2023-12-20T12:49:01;9.20;99.90
40828;DHT22;26549;50.918;5.338;2023-12-20T12:51:27;9.30;99.90
40828;DHT22;26549;50.918;5.338;2023-12-20T12:53:54;9.30;99.90
40828;DHT22;26549;50.918;5.338;2023-12-20T12:56:20;9.20;99.90
40828;DHT22;26549;50.918;5.338;2023-12-20T12:58:47;9.30;99.90
40828;DHT22;26549;50.918;5.338;2023-12-20T13:01:13;9.30;99.90
40828;DHT22;26549;50.918;5.338;2023-12-20T13:03:39;9.20;99.90
40828;DHT22;26549;50.918;5.338;2023-12-20T13:06:05;9.20;99.90
40828;DHT22;26549;50.918;5.338;2023-12-20T13:08:31;9.20;99.90
40828;DHT22;26549;50.918;5.338;2023-12-20T13:10:58;9.30;99.90
40828;DHT22;26549;50.918;5.338;2023-12-20T13:13:29;9.30;99.90
40828;DHT22;26549;50.918;5.338;2023-12-20T13:15:55;9.40;99.90
40828;DHT22;26549;50.918;5.338;2023-12-20T13:18:22;9.50;99.90
40828;DHT22;26549;50.918;5.338;2023-12-20T13:20:48;9.50;99.90
40828;DHT22;26549;50.918;5.338;2023-12-20T13:23:14;9.40;99.90
40828;DHT22;26549;50.918;5.338;2023-12-20T13:25:40;9.40;99.90
40828;DHT22;26549;50.918;5.338;2023-12-20T13:28:06;9.60;99.90
40828;DHT22;26549;50.918;5.338;2023-12-20T13:30:32;9.60;99.90
40828;DHT22;26549;50.918;5.338;2023-12-20T13:33:01;9.70;99.90
40828;DHT22;26549;50.918;5.338;2023-12-20T13:35:26;9.60;99.90
40828;DHT22;26549;50.918;5.338;2023-12-20T13:37:52;9.70;99.90
40828;DHT22;26549;50.918;5.338;2023-12-20T13:40:19;9.70;99.90
40828;DHT22;26549;50.918;5.338;2023-12-20T13:42:45;9.70;99.90
40828;DHT22;26549;50.918;5.338;2023-12-20T13:45:12;9.70;99.90
40828;DHT22;26549;50.918;5.338;2023-12-20T13:47:38;9.50;99.90
40828;DHT22;26549;50.918;5.338;2023-12-20T13:50:04;9.50;99.90
40828;DHT22;26549;50.918;5.338;2023-12-20T13:52:30;9.60;99.90
40828;DHT22;26549;50.918;5.338;2023-12-20T13:54:56;9.50;99.90
40828;DHT22;26549;50.918;5.338;2023-12-20T13:57:22;9.60;99.90
40828;DHT22;26549;50.918;5.338;2023-12-20T13:59:48;9.50;99.90
40828;DHT22;26549;50.918;5.338;2023-12-20T14:02:13;9.50;99.90
40828;DHT22;26549;50.918;5.338;2023-12-20T14:04:39;9.60;99.90
40828;DHT22;26549;50.918;5.338;2023-12-20T14:07:06;9.70;99.90
40828;DHT22;26549;50.918;5.338;2023-12-20T14:09:33;9.50;99.90
40828;DHT22;26549;50.918;5.338;2023-12-20T14:11:59;9.50;99.90
40828;DHT22;26549;50.918;5.338;2023-12-20T14:14:25;9.50;99.90
40828;DHT22;26549;50.918;5.338;2023-12-20T14:16:51;9.40;99.90
40828;DHT22;26549;50.918;5.338;2023-12-20T14:19:17;9.50;99.90
40828;DHT22;26549;50.918;5.338;2023-12-20T14:21:43;9.60;99.90
40828;DHT22;26549;50.918;5.338;2023-12-20T14:24:12;9.60;99.90
40828;DHT22;26549;50.918;5.338;2023-12-20T14:26:40;9.60;99.90
40828;DHT22;26549;50.918;5.338;2023-12-20T14:29:07;9.70;99.90
40828;DHT22;26549;50.918;5.338;2023-12-20T14:31:33;9.60;99.90
40828;DHT22;26549;50.918;5.338;2023-12-20T14:33:59;9.70;99.90
40828;DHT22;26549;50.918;5.338;2023-12-20T14:36:26;9.60;99.90
40828;DHT22;26549;50.918;5.338;2023-12-20T14:38:52;9.60;99.90
40828;DHT22;26549;50.918;5.338;2023-12-20T14:41:18;9.60;99.90
40828;DHT22;26549;50.918;5.338;2023-12-20T14:43:44;9.60;99.90
40828;DHT22;26549;50.918;5.338;2023-12-20T14:46:10;9.60;99.90
40828;DHT22;26549;50.918;5.338;2023-12-20T14:48:36;9.60;99.90
40828;DHT22;26549;50.918;5.338;2023-12-20T14:51:02;9.60;99.90
40828;DHT22;26549;50.918;5.338;2023-12-20T14:53:28;9.60;99.90
40828;DHT22;26549;50.918;5.338;2023-12-20T14:55:54;9.70;99.90
40828;DHT22;26549;50.918;5.338;2023-12-20T14:58:20;9.70;99.90
40828;DHT22;26549;50.918;5.338;2023-12-20T15:00:46;9.60;99.90
40828;DHT22;26549;50.918;5.338;2023-12-20T15:03:11;9.70;99.90
40828;DHT22;26549;50.918;5.338;2023-12-20T15:05:37;9.70;99.90
40828;DHT22;26549;50.918;5.338;2023-12-20T15:08:05;9.60;99.90
40828;DHT22;26549;50.918;5.338;2023-12-20T15:10:33;9.70;99.90
40828;DHT22;26549;50.918;5.338;2023-12-20T15:12:59;9.80;99.90
40828;DHT22;26549;50.918;5.338;2023-12-20T15:15:25;9.80;99.90
40828;DHT22;26549;50.918;5.338;2023-12-20T15:17:52;9.80;99.90
40828;DHT22;26549;50.918;5.338;2023-12-20T15:20:18;9.70;99.90
40828;DHT22;26549;50.918;5.338;2023-12-20T15:22:44;9.70;99.90
40828;DHT22;26549;50.918;5.338;2023-12-20T15:25:11;9.70;99.90
40828;DHT22;26549;50.918;5.338;2023-12-20T15:27:38;9.80;99.90
40828;DHT22;26549;50.918;5.338;2023-12-20T15:30:06;9.80;99.90
40828;DHT22;26549;50.918;5.338;2023-12-20T15:32:36;9.80;99.90
40828;DHT22;26549;50.918;5.338;2023-12-20T15:35:05;9.80;99.90
40828;DHT22;26549;50.918;5.338;2023-12-20T15:37:34;9.80;99.90
40828;DHT22;26549;50.918;5.338;2023-12-20T15:40:00;9.90;99.90
40828;DHT22;26549;50.918;5.338;2023-12-20T15:42:27;9.90;99.90
40828;DHT22;26549;50.918;5.338;2023-12-20T15:44:52;9.80;99.90
40828;DHT22;26549;50.918;5.338;2023-12-20T15:47:18;9.80;99.90
40828;DHT22;26549;50.918;5.338;2023-12-20T15:49:45;9.80;99.90
40828;DHT22;26549;50.918;5.338;2023-12-20T15:52:12;9.80;99.90